map of MWC home
MWC - Airport
Location
City:  Milwaukee, Wisconsin, United States
Name:Lawrence J Timmerman Airport
ICAO:KMWC
IATA:MWC
FAA LID:MWC

Details
Type:Airport (Airfield)
Use:Public/Civil
Latitude:4306'37"N (43.110389)
Longitude:8802'04"W (-88.034416)
Datum:WGS 1984
Elevation:744 ft (227 m)
Variation:3.81W (WMM2015 magnetic declination)
-0.05 annual change
Runways:4
Longest:4103 × 75 ft (1251 × 23 m), paved

Time
Time Zone:UTC-6 (DST-5)
Local Time:

Weather
METAR:KMWC 161945Z 05008KT 10SM OVC008 01/M01 A2992

Related Locations
Nearby:
Farthest:MQZ: 11042 mi / 17770 km
Margaret River [Margaret River Airport], WA, AU

Find:

   beyond  
but within

Other Information
Maps:
NOTAMs:
Links:
Sources:

  
flag of United States
flag of Wisconsin
  

Airport Diagram

Airport diagram for MWC

Airport diagram PDF

Sectional Chart

Flight Planning
at skyvector.com

Satellite Image

Google Maps Satellite view

 

Copyright © 2004-2017 Karl L. Swartz. All rights reserved.
The Great Circle Mapper name and logo are trademarks of the Great Circle Mapper.
All other trademarks mentioned herein belong to their respective owners.
Please see credits for attibutions and further copyright information.

  Follow gcmap on Facebook Follow gcmap on Twitter Follow gcmap on Google+ GCmap on LinkedIn

hCard Microformat

Geo Microformat